sensor_id;sensor_type;location;lat;lon;timestamp;P1;durP1;ratioP1;P2;durP2;ratioP2
2225;SDS011;1119;48.288;8.726;2023-04-01T00:00:12;5.07;;;4.67;;
2225;SDS011;1119;48.288;8.726;2023-04-01T00:03:00;5.20;;;4.90;;
2225;SDS011;1119;48.288;8.726;2023-04-01T00:05:48;4.80;;;4.40;;
2225;SDS011;1119;48.288;8.726;2023-04-01T00:08:37;6.20;;;5.60;;
2225;SDS011;1119;48.288;8.726;2023-04-01T00:11:25;7.57;;;4.67;;
2225;SDS011;1119;48.288;8.726;2023-04-01T00:14:13;5.90;;;5.53;;
2225;SDS011;1119;48.288;8.726;2023-04-01T00:17:00;5.20;;;4.80;;
2225;SDS011;1119;48.288;8.726;2023-04-01T00:19:48;5.70;;;5.20;;
2225;SDS011;1119;48.288;8.726;2023-04-01T00:22:36;5.97;;;5.47;;
2225;SDS011;1119;48.288;8.726;2023-04-01T00:25:25;4.37;;;4.13;;
2225;SDS011;1119;48.288;8.726;2023-04-01T00:28:12;5.63;;;5.00;;
2225;SDS011;1119;48.288;8.726;2023-04-01T00:31:03;4.90;;;4.50;;
2225;SDS011;1119;48.288;8.726;2023-04-01T00:33:52;4.37;;;4.07;;
2225;SDS011;1119;48.288;8.726;2023-04-01T00:36:40;5.13;;;4.73;;
2225;SDS011;1119;48.288;8.726;2023-04-01T00:39:28;5.77;;;5.37;;
2225;SDS011;1119;48.288;8.726;2023-04-01T00:42:18;4.83;;;4.40;;
2225;SDS011;1119;48.288;8.726;2023-04-01T00:48:14;4.40;;;4.10;;
2225;SDS011;1119;48.288;8.726;2023-04-01T00:51:06;4.70;;;4.40;;
2225;SDS011;1119;48.288;8.726;2023-04-01T00:53:58;3.90;;;3.60;;
2225;SDS011;1119;48.288;8.726;2023-04-01T00:56:49;4.87;;;4.40;;
2225;SDS011;1119;48.288;8.726;2023-04-01T00:59:43;3.87;;;3.67;;
2225;SDS011;1119;48.288;8.726;2023-04-01T01:02:35;4.33;;;4.03;;
2225;SDS011;1119;48.288;8.726;2023-04-01T01:05:23;4.70;;;4.30;;
2225;SDS011;1119;48.288;8.726;2023-04-01T01:08:25;4.23;;;3.90;;
2225;SDS011;1119;48.288;8.726;2023-04-01T01:11:25;6.23;;;5.53;;
2225;SDS011;1119;48.288;8.726;2023-04-01T01:14:24;3.90;;;3.60;;
2225;SDS011;1119;48.288;8.726;2023-04-01T01:17:25;4.20;;;3.90;;
2225;SDS011;1119;48.288;8.726;2023-04-01T01:20:46;4.10;;;3.80;;
2225;SDS011;1119;48.288;8.726;2023-04-01T01:24:13;4.03;;;3.73;;
2225;SDS011;1119;48.288;8.726;2023-04-01T01:27:27;4.70;;;4.20;;
2225;SDS011;1119;48.288;8.726;2023-04-01T01:30:31;4.40;;;4.00;;
2225;SDS011;1119;48.288;8.726;2023-04-01T01:33:31;4.80;;;4.40;;
2225;SDS011;1119;48.288;8.726;2023-04-01T01:36:31;4.10;;;3.90;;
2225;SDS011;1119;48.288;8.726;2023-04-01T01:39:22;4.63;;;4.23;;
2225;SDS011;1119;48.288;8.726;2023-04-01T01:42:17;6.40;;;5.80;;
2225;SDS011;1119;48.288;8.726;2023-04-01T01:45:06;4.53;;;4.23;;
2225;SDS011;1119;48.288;8.726;2023-04-01T01:47:57;4.90;;;4.50;;
2225;SDS011;1119;48.288;8.726;2023-04-01T01:50:47;4.60;;;4.30;;
2225;SDS011;1119;48.288;8.726;2023-04-01T01:53:38;5.00;;;4.70;;
2225;SDS011;1119;48.288;8.726;2023-04-01T01:56:26;4.10;;;3.90;;
2225;SDS011;1119;48.288;8.726;2023-04-01T01:59:17;4.77;;;4.37;;
2225;SDS011;1119;48.288;8.726;2023-04-01T02:02:08;4.50;;;4.20;;
2225;SDS011;1119;48.288;8.726;2023-04-01T02:04:57;4.13;;;3.80;;
2225;SDS011;1119;48.288;8.726;2023-04-01T02:07:46;5.03;;;4.73;;
2225;SDS011;1119;48.288;8.726;2023-04-01T02:10:43;5.80;;;4.50;;
2225;SDS011;1119;48.288;8.726;2023-04-01T02:13:40;5.10;;;4.50;;
2225;SDS011;1119;48.288;8.726;2023-04-01T02:16:33;4.53;;;4.23;;
2225;SDS011;1119;48.288;8.726;2023-04-01T02:19:26;4.00;;;3.70;;
2225;SDS011;1119;48.288;8.726;2023-04-01T02:22:20;4.57;;;4.27;;
2225;SDS011;1119;48.288;8.726;2023-04-01T02:25:12;5.10;;;4.77;;
2225;SDS011;1119;48.288;8.726;2023-04-01T02:28:05;5.13;;;4.90;;
2225;SDS011;1119;48.288;8.726;2023-04-01T02:30:54;4.70;;;4.40;;
2225;SDS011;1119;48.288;8.726;2023-04-01T02:33:44;5.87;;;5.00;;
2225;SDS011;1119;48.288;8.726;2023-04-01T02:36:32;6.70;;;6.37;;
2225;SDS011;1119;48.288;8.726;2023-04-01T02:39:22;4.87;;;4.57;;
2225;SDS011;1119;48.288;8.726;2023-04-01T02:42:11;4.70;;;4.47;;
2225;SDS011;1119;48.288;8.726;2023-04-01T02:45:01;6.30;;;5.80;;
2225;SDS011;1119;48.288;8.726;2023-04-01T02:47:50;5.33;;;4.93;;
2225;SDS011;1119;48.288;8.726;2023-04-01T02:50:37;5.50;;;5.00;;
2225;SDS011;1119;48.288;8.726;2023-04-01T02:53:25;5.90;;;5.50;;
2225;SDS011;1119;48.288;8.726;2023-04-01T02:56:12;4.23;;;4.00;;
2225;SDS011;1119;48.288;8.726;2023-04-01T02:59:00;4.63;;;4.33;;
2225;SDS011;1119;48.288;8.726;2023-04-01T03:01:49;5.70;;;5.30;;
2225;SDS011;1119;48.288;8.726;2023-04-01T03:04:37;4.20;;;3.90;;
2225;SDS011;1119;48.288;8.726;2023-04-01T03:07:24;4.47;;;4.17;;
2225;SDS011;1119;48.288;8.726;2023-04-01T03:10:12;3.90;;;3.60;;
2225;SDS011;1119;48.288;8.726;2023-04-01T03:13:00;5.93;;;4.83;;
2225;SDS011;1119;48.288;8.726;2023-04-01T03:15:48;5.37;;;5.03;;
2225;SDS011;1119;48.288;8.726;2023-04-01T03:18:37;5.07;;;4.60;;
2225;SDS011;1119;48.288;8.726;2023-04-01T03:21:25;4.70;;;4.40;;
2225;SDS011;1119;48.288;8.726;2023-04-01T03:24:13;4.80;;;4.50;;
2225;SDS011;1119;48.288;8.726;2023-04-01T03:27:00;5.20;;;4.80;;
2225;SDS011;1119;48.288;8.726;2023-04-01T03:29:48;6.10;;;5.60;;
2225;SDS011;1119;48.288;8.726;2023-04-01T03:32:36;4.97;;;4.73;;
2225;SDS011;1119;48.288;8.726;2023-04-01T03:35:26;5.20;;;4.90;;
2225;SDS011;1119;48.288;8.726;2023-04-01T03:38:14;5.30;;;4.90;;
2225;SDS011;1119;48.288;8.726;2023-04-01T03:41:02;5.03;;;4.63;;
2225;SDS011;1119;48.288;8.726;2023-04-01T03:43:52;5.30;;;4.90;;
2225;SDS011;1119;48.288;8.726;2023-04-01T03:46:40;4.63;;;4.40;;
2225;SDS011;1119;48.288;8.726;2023-04-01T03:49:28;4.53;;;4.20;;
2225;SDS011;1119;48.288;8.726;2023-04-01T03:52:19;5.33;;;4.80;;
2225;SDS011;1119;48.288;8.726;2023-04-01T03:55:07;5.77;;;5.20;;
2225;SDS011;1119;48.288;8.726;2023-04-01T03:57:57;5.07;;;4.77;;
2225;SDS011;1119;48.288;8.726;2023-04-01T04:00:44;4.80;;;4.40;;
2225;SDS011;1119;48.288;8.726;2023-04-01T04:03:32;4.30;;;4.03;;
2225;SDS011;1119;48.288;8.726;2023-04-01T04:06:20;5.00;;;4.60;;
2225;SDS011;1119;48.288;8.726;2023-04-01T04:09:09;4.93;;;4.57;;
2225;SDS011;1119;48.288;8.726;2023-04-01T04:11:57;5.20;;;4.70;;
2225;SDS011;1119;48.288;8.726;2023-04-01T04:14:45;4.80;;;4.30;;
2225;SDS011;1119;48.288;8.726;2023-04-01T04:17:32;5.40;;;5.00;;
2225;SDS011;1119;48.288;8.726;2023-04-01T04:20:20;4.60;;;4.30;;
2225;SDS011;1119;48.288;8.726;2023-04-01T04:23:08;5.27;;;4.80;;
2225;SDS011;1119;48.288;8.726;2023-04-01T04:25:57;6.23;;;4.40;;
2225;SDS011;1119;48.288;8.726;2023-04-01T04:28:49;5.33;;;4.93;;
2225;SDS011;1119;48.288;8.726;2023-04-01T04:31:38;6.03;;;5.57;;
2225;SDS011;1119;48.288;8.726;2023-04-01T04:34:26;5.07;;;4.77;;
2225;SDS011;1119;48.288;8.726;2023-04-01T04:37:13;4.80;;;4.47;;
2225;SDS011;1119;48.288;8.726;2023-04-01T04:40:01;5.13;;;4.70;;
2225;SDS011;1119;48.288;8.726;2023-04-01T04:42:52;4.23;;;4.03;;
2225;SDS011;1119;48.288;8.726;2023-04-01T04:45:39;4.87;;;4.37;;
2225;SDS011;1119;48.288;8.726;2023-04-01T04:48:28;4.13;;;3.93;;
2225;SDS011;1119;48.288;8.726;2023-04-01T04:51:15;4.67;;;4.37;;
2225;SDS011;1119;48.288;8.726;2023-04-01T04:54:05;4.77;;;4.47;;
2225;SDS011;1119;48.288;8.726;2023-04-01T04:57:10;5.20;;;4.80;;
2225;SDS011;1119;48.288;8.726;2023-04-01T05:00:09;4.40;;;4.10;;
2225;SDS011;1119;48.288;8.726;2023-04-01T05:03:12;4.90;;;4.50;;
2225;SDS011;1119;48.288;8.726;2023-04-01T05:06:00;5.50;;;5.10;;
2225;SDS011;1119;48.288;8.726;2023-04-01T05:08:49;6.50;;;5.90;;
2225;SDS011;1119;48.288;8.726;2023-04-01T05:11:36;4.43;;;4.13;;
2225;SDS011;1119;48.288;8.726;2023-04-01T05:14:24;6.00;;;5.50;;
2225;SDS011;1119;48.288;8.726;2023-04-01T05:17:20;4.77;;;4.47;;
2225;SDS011;1119;48.288;8.726;2023-04-01T05:20:08;4.40;;;4.10;;
2225;SDS011;1119;48.288;8.726;2023-04-01T05:22:58;5.20;;;4.80;;
2225;SDS011;1119;48.288;8.726;2023-04-01T05:25:46;4.40;;;4.10;;
2225;SDS011;1119;48.288;8.726;2023-04-01T05:28:34;4.73;;;4.20;;
2225;SDS011;1119;48.288;8.726;2023-04-01T05:31:22;4.50;;;4.30;;
2225;SDS011;1119;48.288;8.726;2023-04-01T05:34:12;4.27;;;4.03;;
2225;SDS011;1119;48.288;8.726;2023-04-01T05:37:00;4.50;;;4.30;;
2225;SDS011;1119;48.288;8.726;2023-04-01T05:39:48;3.90;;;3.67;;
2225;SDS011;1119;48.288;8.726;2023-04-01T05:42:37;4.50;;;4.30;;
2225;SDS011;1119;48.288;8.726;2023-04-01T05:45:25;4.50;;;4.10;;
2225;SDS011;1119;48.288;8.726;2023-04-01T05:48:36;4.90;;;4.60;;
2225;SDS011;1119;48.288;8.726;2023-04-01T05:51:25;5.43;;;5.10;;
2225;SDS011;1119;48.288;8.726;2023-04-01T05:54:13;5.30;;;4.20;;
2225;SDS011;1119;48.288;8.726;2023-04-01T05:57:00;4.27;;;3.97;;
2225;SDS011;1119;48.288;8.726;2023-04-01T05:59:48;4.87;;;4.60;;
2225;SDS011;1119;48.288;8.726;2023-04-01T06:02:36;4.67;;;4.30;;
2225;SDS011;1119;48.288;8.726;2023-04-01T06:05:26;5.90;;;5.40;;
2225;SDS011;1119;48.288;8.726;2023-04-01T06:08:26;5.07;;;4.77;;
2225;SDS011;1119;48.288;8.726;2023-04-01T06:11:18;4.90;;;4.60;;
2225;SDS011;1119;48.288;8.726;2023-04-01T06:14:17;4.53;;;4.23;;
2225;SDS011;1119;48.288;8.726;2023-04-01T06:17:24;5.30;;;4.97;;
2225;SDS011;1119;48.288;8.726;2023-04-01T06:20:34;6.17;;;4.60;;
2225;SDS011;1119;48.288;8.726;2023-04-01T06:23:33;5.47;;;5.10;;
2225;SDS011;1119;48.288;8.726;2023-04-01T06:26:36;4.10;;;3.90;;
2225;SDS011;1119;48.288;8.726;2023-04-01T06:33:14;5.10;;;4.80;;
2225;SDS011;1119;48.288;8.726;2023-04-01T06:36:31;4.67;;;4.37;;
2225;SDS011;1119;48.288;8.726;2023-04-01T06:39:46;4.60;;;4.20;;
2225;SDS011;1119;48.288;8.726;2023-04-01T06:42:57;4.53;;;4.33;;
2225;SDS011;1119;48.288;8.726;2023-04-01T06:46:16;4.60;;;4.30;;
2225;SDS011;1119;48.288;8.726;2023-04-01T06:49:44;5.30;;;4.90;;
2225;SDS011;1119;48.288;8.726;2023-04-01T06:53:01;5.97;;;5.40;;
2225;SDS011;1119;48.288;8.726;2023-04-01T06:56:07;7.13;;;6.53;;
2225;SDS011;1119;48.288;8.726;2023-04-01T06:59:24;5.50;;;5.10;;
2225;SDS011;1119;48.288;8.726;2023-04-01T07:02:18;5.53;;;5.23;;
2225;SDS011;1119;48.288;8.726;2023-04-01T07:05:12;5.20;;;4.80;;
2225;SDS011;1119;48.288;8.726;2023-04-01T07:08:02;9.23;;;6.00;;
2225;SDS011;1119;48.288;8.726;2023-04-01T07:10:56;5.00;;;4.70;;
2225;SDS011;1119;48.288;8.726;2023-04-01T07:14:12;5.93;;;5.47;;
2225;SDS011;1119;48.288;8.726;2023-04-01T07:17:08;5.90;;;4.50;;
2225;SDS011;1119;48.288;8.726;2023-04-01T07:20:03;5.33;;;4.50;;
2225;SDS011;1119;48.288;8.726;2023-04-01T07:22:59;4.37;;;4.07;;
2225;SDS011;1119;48.288;8.726;2023-04-01T07:26:14;5.03;;;4.43;;
2225;SDS011;1119;48.288;8.726;2023-04-01T07:29:23;4.60;;;4.40;;
2225;SDS011;1119;48.288;8.726;2023-04-01T07:32:19;4.93;;;4.43;;
2225;SDS011;1119;48.288;8.726;2023-04-01T07:35:18;4.83;;;4.00;;
2225;SDS011;1119;48.288;8.726;2023-04-01T07:38:14;4.43;;;4.10;;
2225;SDS011;1119;48.288;8.726;2023-04-01T07:41:12;5.27;;;4.87;;
2225;SDS011;1119;48.288;8.726;2023-04-01T07:44:13;5.37;;;5.00;;
2225;SDS011;1119;48.288;8.726;2023-04-01T07:47:14;5.43;;;5.03;;
2225;SDS011;1119;48.288;8.726;2023-04-01T07:50:28;6.47;;;6.07;;
2225;SDS011;1119;48.288;8.726;2023-04-01T07:53:20;6.13;;;5.73;;
2225;SDS011;1119;48.288;8.726;2023-04-01T07:56:20;5.67;;;5.30;;
2225;SDS011;1119;48.288;8.726;2023-04-01T07:59:15;6.40;;;6.00;;
2225;SDS011;1119;48.288;8.726;2023-04-01T08:02:38;4.80;;;4.40;;
2225;SDS011;1119;48.288;8.726;2023-04-01T08:05:40;5.60;;;5.20;;
2225;SDS011;1119;48.288;8.726;2023-04-01T08:08:39;5.10;;;4.80;;
2225;SDS011;1119;48.288;8.726;2023-04-01T08:11:59;6.23;;;5.83;;
2225;SDS011;1119;48.288;8.726;2023-04-01T08:15:16;5.43;;;5.13;;
2225;SDS011;1119;48.288;8.726;2023-04-01T08:18:43;6.53;;;6.03;;
2225;SDS011;1119;48.288;8.726;2023-04-01T08:21:38;5.60;;;5.20;;
2225;SDS011;1119;48.288;8.726;2023-04-01T08:24:33;4.97;;;4.67;;
2225;SDS011;1119;48.288;8.726;2023-04-01T08:27:26;5.30;;;4.90;;
2225;SDS011;1119;48.288;8.726;2023-04-01T08:30:23;5.60;;;5.30;;
2225;SDS011;1119;48.288;8.726;2023-04-01T08:33:13;4.90;;;4.60;;
2225;SDS011;1119;48.288;8.726;2023-04-01T08:36:09;4.63;;;4.30;;
2225;SDS011;1119;48.288;8.726;2023-04-01T08:39:03;4.77;;;4.47;;
2225;SDS011;1119;48.288;8.726;2023-04-01T08:42:10;4.73;;;4.43;;
2225;SDS011;1119;48.288;8.726;2023-04-01T08:45:47;4.93;;;4.63;;
2225;SDS011;1119;48.288;8.726;2023-04-01T08:52:09;5.20;;;4.90;;
2225;SDS011;1119;48.288;8.726;2023-04-01T08:58:53;4.70;;;4.30;;
2225;SDS011;1119;48.288;8.726;2023-04-01T09:02:11;4.67;;;4.37;;
2225;SDS011;1119;48.288;8.726;2023-04-01T09:05:44;4.03;;;3.83;;
2225;SDS011;1119;48.288;8.726;2023-04-01T09:12:32;5.57;;;5.17;;
2225;SDS011;1119;48.288;8.726;2023-04-01T09:15:50;6.07;;;5.57;;
2225;SDS011;1119;48.288;8.726;2023-04-01T09:19:19;4.43;;;4.23;;
2225;SDS011;1119;48.288;8.726;2023-04-01T09:22:25;4.97;;;4.57;;
2225;SDS011;1119;48.288;8.726;2023-04-01T09:29:11;4.37;;;4.03;;
2225;SDS011;1119;48.288;8.726;2023-04-01T09:32:26;4.60;;;4.30;;
2225;SDS011;1119;48.288;8.726;2023-04-01T09:35:46;5.03;;;4.60;;
2225;SDS011;1119;48.288;8.726;2023-04-01T09:38:39;4.20;;;3.90;;
2225;SDS011;1119;48.288;8.726;2023-04-01T09:41:46;5.30;;;4.90;;
2225;SDS011;1119;48.288;8.726;2023-04-01T09:45:31;4.40;;;4.20;;
2225;SDS011;1119;48.288;8.726;2023-04-01T09:48:37;4.60;;;4.30;;
2225;SDS011;1119;48.288;8.726;2023-04-01T09:51:39;8.00;;;4.93;;
2225;SDS011;1119;48.288;8.726;2023-04-01T09:54:46;5.27;;;4.87;;
2225;SDS011;1119;48.288;8.726;2023-04-01T09:57:57;4.43;;;4.20;;
2225;SDS011;1119;48.288;8.726;2023-04-01T10:01:40;5.10;;;4.80;;
2225;SDS011;1119;48.288;8.726;2023-04-01T10:04:55;5.43;;;5.03;;
2225;SDS011;1119;48.288;8.726;2023-04-01T10:08:26;6.10;;;5.63;;
2225;SDS011;1119;48.288;8.726;2023-04-01T10:15:53;5.77;;;5.37;;
2225;SDS011;1119;48.288;8.726;2023-04-01T10:19:36;5.67;;;5.37;;
2225;SDS011;1119;48.288;8.726;2023-04-01T10:23:27;4.17;;;3.90;;
2225;SDS011;1119;48.288;8.726;2023-04-01T10:26:38;3.77;;;3.57;;
2225;SDS011;1119;48.288;8.726;2023-04-01T10:48:15;5.40;;;5.10;;
2225;SDS011;1119;48.288;8.726;2023-04-01T10:55:36;6.50;;;6.20;;
2225;SDS011;1119;48.288;8.726;2023-04-01T10:59:09;7.90;;;7.20;;
2225;SDS011;1119;48.288;8.726;2023-04-01T11:18:14;8.30;;;7.70;;
2225;SDS011;1119;48.288;8.726;2023-04-01T11:29:03;5.80;;;5.50;;
2225;SDS011;1119;48.288;8.726;2023-04-01T11:32:39;7.20;;;6.87;;
2225;SDS011;1119;48.288;8.726;2023-04-01T11:35:42;5.93;;;5.63;;
2225;SDS011;1119;48.288;8.726;2023-04-01T11:39:00;8.60;;;8.00;;
2225;SDS011;1119;48.288;8.726;2023-04-01T11:42:38;8.73;;;8.10;;
2225;SDS011;1119;48.288;8.726;2023-04-01T11:45:53;5.57;;;5.30;;
2225;SDS011;1119;48.288;8.726;2023-04-01T11:48:52;7.13;;;6.73;;
2225;SDS011;1119;48.288;8.726;2023-04-01T11:52:03;5.07;;;4.77;;
2225;SDS011;1119;48.288;8.726;2023-04-01T11:55:19;5.50;;;5.10;;
2225;SDS011;1119;48.288;8.726;2023-04-01T11:58:33;7.03;;;6.53;;
2225;SDS011;1119;48.288;8.726;2023-04-01T12:01:48;9.57;;;8.87;;
2225;SDS011;1119;48.288;8.726;2023-04-01T12:04:54;8.60;;;8.10;;
2225;SDS011;1119;48.288;8.726;2023-04-01T12:08:15;7.17;;;6.77;;
2225;SDS011;1119;48.288;8.726;2023-04-01T12:11:20;6.97;;;6.40;;
2225;SDS011;1119;48.288;8.726;2023-04-01T12:14:16;4.93;;;4.60;;
2225;SDS011;1119;48.288;8.726;2023-04-01T12:17:09;5.70;;;5.30;;
2225;SDS011;1119;48.288;8.726;2023-04-01T12:20:20;42.17;;;19.87;;
2225;SDS011;1119;48.288;8.726;2023-04-01T12:23:35;4.27;;;4.07;;
2225;SDS011;1119;48.288;8.726;2023-04-01T12:27:31;13.60;;;10.93;;
2225;SDS011;1119;48.288;8.726;2023-04-01T12:30:30;7.37;;;6.23;;
2225;SDS011;1119;48.288;8.726;2023-04-01T12:36:43;7.73;;;7.13;;
2225;SDS011;1119;48.288;8.726;2023-04-01T12:40:04;4.20;;;3.90;;
2225;SDS011;1119;48.288;8.726;2023-04-01T12:43:20;7.50;;;6.50;;
2225;SDS011;1119;48.288;8.726;2023-04-01T12:46:30;6.37;;;5.93;;
2225;SDS011;1119;48.288;8.726;2023-04-01T12:53:02;7.10;;;6.60;;
2225;SDS011;1119;48.288;8.726;2023-04-01T12:56:22;5.93;;;5.60;;
2225;SDS011;1119;48.288;8.726;2023-04-01T12:59:24;5.30;;;5.00;;
2225;SDS011;1119;48.288;8.726;2023-04-01T13:02:34;5.20;;;4.90;;
2225;SDS011;1119;48.288;8.726;2023-04-01T13:05:56;9.00;;;7.97;;
2225;SDS011;1119;48.288;8.726;2023-04-01T13:09:15;4.80;;;4.57;;
2225;SDS011;1119;48.288;8.726;2023-04-01T13:12:33;5.43;;;4.00;;
2225;SDS011;1119;48.288;8.726;2023-04-01T13:15:35;8.23;;;7.83;;
2225;SDS011;1119;48.288;8.726;2023-04-01T13:18:29;7.17;;;6.80;;
2225;SDS011;1119;48.288;8.726;2023-04-01T13:21:29;10.37;;;9.77;;
2225;SDS011;1119;48.288;8.726;2023-04-01T13:24:34;11.30;;;10.80;;
2225;SDS011;1119;48.288;8.726;2023-04-01T13:27:31;10.13;;;9.73;;
2225;SDS011;1119;48.288;8.726;2023-04-01T13:30:25;14.23;;;13.63;;
2225;SDS011;1119;48.288;8.726;2023-04-01T13:33:20;10.73;;;10.23;;
2225;SDS011;1119;48.288;8.726;2023-04-01T13:36:19;11.23;;;10.83;;
2225;SDS011;1119;48.288;8.726;2023-04-01T13:39:22;9.03;;;8.63;;
2225;SDS011;1119;48.288;8.726;2023-04-01T13:42:24;13.90;;;13.40;;
2225;SDS011;1119;48.288;8.726;2023-04-01T13:45:18;11.90;;;11.33;;
2225;SDS011;1119;48.288;8.726;2023-04-01T13:48:14;16.33;;;15.73;;
2225;SDS011;1119;48.288;8.726;2023-04-01T13:51:18;15.90;;;14.90;;
2225;SDS011;1119;48.288;8.726;2023-04-01T13:54:46;18.63;;;17.80;;
2225;SDS011;1119;48.288;8.726;2023-04-01T13:58:13;19.10;;;18.40;;
2225;SDS011;1119;48.288;8.726;2023-04-01T14:01:29;16.20;;;15.40;;
2225;SDS011;1119;48.288;8.726;2023-04-01T14:04:30;12.77;;;11.87;;
2225;SDS011;1119;48.288;8.726;2023-04-01T14:07:40;19.43;;;18.20;;
2225;SDS011;1119;48.288;8.726;2023-04-01T14:10:45;16.20;;;15.40;;
2225;SDS011;1119;48.288;8.726;2023-04-01T14:13:47;16.37;;;15.30;;
2225;SDS011;1119;48.288;8.726;2023-04-01T14:17:03;16.17;;;15.37;;
2225;SDS011;1119;48.288;8.726;2023-04-01T14:23:34;21.97;;;20.93;;
2225;SDS011;1119;48.288;8.726;2023-04-01T14:30:24;13.37;;;12.57;;
2225;SDS011;1119;48.288;8.726;2023-04-01T14:33:37;9.83;;;9.33;;
2225;SDS011;1119;48.288;8.726;2023-04-01T14:36:36;12.17;;;11.60;;
2225;SDS011;1119;48.288;8.726;2023-04-01T14:39:49;31.33;;;30.17;;
2225;SDS011;1119;48.288;8.726;2023-04-01T14:43:33;19.00;;;18.00;;
2225;SDS011;1119;48.288;8.726;2023-04-01T14:50:23;13.50;;;13.00;;
2225;SDS011;1119;48.288;8.726;2023-04-01T14:53:16;13.60;;;13.00;;
2225;SDS011;1119;48.288;8.726;2023-04-01T14:56:14;14.17;;;13.37;;
2225;SDS011;1119;48.288;8.726;2023-04-01T14:59:27;18.03;;;16.23;;
2225;SDS011;1119;48.288;8.726;2023-04-01T15:02:26;18.60;;;17.53;;
2225;SDS011;1119;48.288;8.726;2023-04-01T15:05:36;22.90;;;22.00;;
2225;SDS011;1119;48.288;8.726;2023-04-01T15:08:31;30.20;;;28.87;;
2225;SDS011;1119;48.288;8.726;2023-04-01T15:11:28;12.83;;;12.23;;
2225;SDS011;1119;48.288;8.726;2023-04-01T15:17:49;10.97;;;10.47;;
2225;SDS011;1119;48.288;8.726;2023-04-01T15:20:52;11.63;;;10.93;;
2225;SDS011;1119;48.288;8.726;2023-04-01T15:23:56;8.50;;;8.00;;
2225;SDS011;1119;48.288;8.726;2023-04-01T15:26:56;9.00;;;8.60;;
2225;SDS011;1119;48.288;8.726;2023-04-01T15:30:19;11.73;;;11.03;;
2225;SDS011;1119;48.288;8.726;2023-04-01T15:33:20;12.30;;;11.70;;
2225;SDS011;1119;48.288;8.726;2023-04-01T15:36:40;9.00;;;8.40;;
2225;SDS011;1119;48.288;8.726;2023-04-01T15:39:38;9.30;;;8.80;;
2225;SDS011;1119;48.288;8.726;2023-04-01T15:42:41;12.13;;;11.20;;
2225;SDS011;1119;48.288;8.726;2023-04-01T15:45:45;11.33;;;10.70;;
2225;SDS011;1119;48.288;8.726;2023-04-01T15:48:45;8.60;;;8.20;;
2225;SDS011;1119;48.288;8.726;2023-04-01T15:51:50;13.93;;;13.07;;
2225;SDS011;1119;48.288;8.726;2023-04-01T15:55:00;10.70;;;10.10;;
2225;SDS011;1119;48.288;8.726;2023-04-01T15:58:16;11.30;;;10.80;;
2225;SDS011;1119;48.288;8.726;2023-04-01T16:01:26;7.70;;;7.30;;
2225;SDS011;1119;48.288;8.726;2023-04-01T16:04:33;10.43;;;9.93;;
2225;SDS011;1119;48.288;8.726;2023-04-01T16:11:14;9.27;;;8.87;;
2225;SDS011;1119;48.288;8.726;2023-04-01T16:14:11;10.57;;;10.00;;
2225;SDS011;1119;48.288;8.726;2023-04-01T16:20:42;9.90;;;9.37;;
2225;SDS011;1119;48.288;8.726;2023-04-01T16:23:39;9.50;;;9.00;;
2225;SDS011;1119;48.288;8.726;2023-04-01T16:26:35;8.03;;;7.50;;
2225;SDS011;1119;48.288;8.726;2023-04-01T16:29:29;7.27;;;6.90;;
2225;SDS011;1119;48.288;8.726;2023-04-01T16:32:35;9.03;;;8.57;;
2225;SDS011;1119;48.288;8.726;2023-04-01T16:35:30;7.27;;;6.77;;
2225;SDS011;1119;48.288;8.726;2023-04-01T16:38:32;10.73;;;7.47;;
2225;SDS011;1119;48.288;8.726;2023-04-01T16:41:28;6.67;;;6.27;;
2225;SDS011;1119;48.288;8.726;2023-04-01T16:44:19;7.17;;;6.70;;
2225;SDS011;1119;48.288;8.726;2023-04-01T16:47:10;9.63;;;9.13;;
2225;SDS011;1119;48.288;8.726;2023-04-01T16:50:06;11.43;;;10.83;;
2225;SDS011;1119;48.288;8.726;2023-04-01T16:53:02;9.40;;;8.80;;
2225;SDS011;1119;48.288;8.726;2023-04-01T16:56:04;10.00;;;9.27;;
2225;SDS011;1119;48.288;8.726;2023-04-01T16:59:00;8.30;;;7.90;;
2225;SDS011;1119;48.288;8.726;2023-04-01T17:01:57;10.73;;;10.00;;
2225;SDS011;1119;48.288;8.726;2023-04-01T17:04:53;11.03;;;10.33;;
2225;SDS011;1119;48.288;8.726;2023-04-01T17:07:48;9.43;;;8.83;;
2225;SDS011;1119;48.288;8.726;2023-04-01T17:14:00;9.33;;;8.73;;
2225;SDS011;1119;48.288;8.726;2023-04-01T17:17:08;9.47;;;8.60;;
2225;SDS011;1119;48.288;8.726;2023-04-01T17:20:36;7.13;;;6.53;;
2225;SDS011;1119;48.288;8.726;2023-04-01T17:23:36;18.53;;;10.47;;
2225;SDS011;1119;48.288;8.726;2023-04-01T17:26:32;10.33;;;9.53;;
2225;SDS011;1119;48.288;8.726;2023-04-01T17:29:31;8.80;;;8.20;;
2225;SDS011;1119;48.288;8.726;2023-04-01T17:32:37;8.60;;;6.37;;
2225;SDS011;1119;48.288;8.726;2023-04-01T17:35:37;7.60;;;7.20;;
2225;SDS011;1119;48.288;8.726;2023-04-01T17:38:36;8.13;;;7.63;;
2225;SDS011;1119;48.288;8.726;2023-04-01T17:41:42;7.23;;;6.73;;
2225;SDS011;1119;48.288;8.726;2023-04-01T17:44:46;6.57;;;6.23;;
2225;SDS011;1119;48.288;8.726;2023-04-01T17:47:48;5.10;;;4.80;;
2225;SDS011;1119;48.288;8.726;2023-04-01T17:50:48;6.17;;;5.67;;
2225;SDS011;1119;48.288;8.726;2023-04-01T17:53:51;6.43;;;5.93;;
2225;SDS011;1119;48.288;8.726;2023-04-01T17:56:49;6.80;;;6.20;;
2225;SDS011;1119;48.288;8.726;2023-04-01T17:59:52;5.47;;;4.93;;
2225;SDS011;1119;48.288;8.726;2023-04-01T18:03:00;5.60;;;5.10;;
2225;SDS011;1119;48.288;8.726;2023-04-01T18:06:01;6.03;;;5.53;;
2225;SDS011;1119;48.288;8.726;2023-04-01T18:08:57;6.90;;;6.37;;
2225;SDS011;1119;48.288;8.726;2023-04-01T18:11:50;7.57;;;6.90;;
2225;SDS011;1119;48.288;8.726;2023-04-01T18:15:06;6.53;;;6.03;;
2225;SDS011;1119;48.288;8.726;2023-04-01T18:18:10;11.80;;;10.80;;
2225;SDS011;1119;48.288;8.726;2023-04-01T18:21:19;11.60;;;10.60;;
2225;SDS011;1119;48.288;8.726;2023-04-01T18:24:20;8.33;;;7.63;;
2225;SDS011;1119;48.288;8.726;2023-04-01T18:27:15;8.93;;;8.10;;
2225;SDS011;1119;48.288;8.726;2023-04-01T18:30:13;7.33;;;6.63;;
2225;SDS011;1119;48.288;8.726;2023-04-01T18:33:04;11.60;;;10.53;;
2225;SDS011;1119;48.288;8.726;2023-04-01T18:36:08;9.40;;;8.60;;
2225;SDS011;1119;48.288;8.726;2023-04-01T18:39:04;12.20;;;11.10;;
2225;SDS011;1119;48.288;8.726;2023-04-01T18:41:59;10.67;;;9.63;;
2225;SDS011;1119;48.288;8.726;2023-04-01T18:44:56;13.57;;;11.23;;
2225;SDS011;1119;48.288;8.726;2023-04-01T18:47:54;30.97;;;18.67;;
2225;SDS011;1119;48.288;8.726;2023-04-01T18:50:53;8.90;;;8.00;;
2225;SDS011;1119;48.288;8.726;2023-04-01T18:53:45;7.40;;;6.77;;
2225;SDS011;1119;48.288;8.726;2023-04-01T18:56:41;6.57;;;5.93;;
2225;SDS011;1119;48.288;8.726;2023-04-01T18:59:32;7.73;;;6.70;;
2225;SDS011;1119;48.288;8.726;2023-04-01T19:02:27;8.83;;;7.77;;
2225;SDS011;1119;48.288;8.726;2023-04-01T19:05:25;7.33;;;6.50;;
2225;SDS011;1119;48.288;8.726;2023-04-01T19:08:22;14.20;;;9.43;;
2225;SDS011;1119;48.288;8.726;2023-04-01T19:11:17;9.47;;;8.10;;
2225;SDS011;1119;48.288;8.726;2023-04-01T19:14:16;7.23;;;6.53;;
2225;SDS011;1119;48.288;8.726;2023-04-01T19:17:15;5.97;;;5.57;;
2225;SDS011;1119;48.288;8.726;2023-04-01T19:20:14;7.83;;;7.20;;
2225;SDS011;1119;48.288;8.726;2023-04-01T19:23:16;7.80;;;7.10;;
2225;SDS011;1119;48.288;8.726;2023-04-01T19:26:35;6.27;;;5.67;;
2225;SDS011;1119;48.288;8.726;2023-04-01T19:29:30;6.90;;;6.20;;
2225;SDS011;1119;48.288;8.726;2023-04-01T19:32:39;6.30;;;5.80;;
2225;SDS011;1119;48.288;8.726;2023-04-01T19:35:38;6.27;;;5.67;;
2225;SDS011;1119;48.288;8.726;2023-04-01T19:38:32;5.30;;;4.90;;
2225;SDS011;1119;48.288;8.726;2023-04-01T19:41:29;6.47;;;5.87;;
2225;SDS011;1119;48.288;8.726;2023-04-01T19:44:28;7.60;;;6.90;;
2225;SDS011;1119;48.288;8.726;2023-04-01T19:47:31;6.30;;;5.90;;
2225;SDS011;1119;48.288;8.726;2023-04-01T19:50:36;5.90;;;5.40;;
2225;SDS011;1119;48.288;8.726;2023-04-01T19:53:28;6.20;;;5.60;;
2225;SDS011;1119;48.288;8.726;2023-04-01T19:56:24;5.50;;;5.07;;
2225;SDS011;1119;48.288;8.726;2023-04-01T19:59:27;5.67;;;5.27;;
2225;SDS011;1119;48.288;8.726;2023-04-01T20:05:47;6.50;;;6.00;;
2225;SDS011;1119;48.288;8.726;2023-04-01T20:08:48;7.07;;;6.57;;
2225;SDS011;1119;48.288;8.726;2023-04-01T20:11:53;6.60;;;6.00;;
2225;SDS011;1119;48.288;8.726;2023-04-01T20:14:46;5.90;;;5.30;;
2225;SDS011;1119;48.288;8.726;2023-04-01T20:17:38;5.20;;;4.80;;
2225;SDS011;1119;48.288;8.726;2023-04-01T20:20:30;7.40;;;5.40;;